Terminal Aerodrome Forecast
Issued by NWS Upton, NY

Home | Current Version | Previous Version | Text Only | Print | Product List | Glossary On
Versions: 1 2 3 4 5 6 7 8 9 10 11 12 13 14 15 16 17 18 19 20 21 22 23 24 25 26 27 28 29 30 31 32 33
686
FTUS41 KOKX 251135
TAFJFK
TAF
KJFK 251135Z 2512/2618 07006KT P6SM BKN018
      TEMPO 2512/2513 SCT018 OVC040
     FM251500 06008KT P6SM OVC025
     FM252200 06009KT P6SM BKN040
     FM260500 05007KT P6SM SCT040
     FM261400 06006KT P6SM SCT200
     FM261700 12008KT P6SM SCT200=

USA.gov is the U.S. government's official web portal to all federal, state and local government web resources and services.